Time,TemperatureF,DewpointF,PressureIn,WindDirection,WindDirectionDegrees,WindSpeedMPH,WindSpeedGustMPH,Humidity,HourlyPrecipIn,Conditions,Clouds,dailyrainin,SolarRadiationWatts/m^2,SoftwareType,DateUTC
2013-07-26 00:01:00,60.4,57.7,30.10,NNE,30,0.0,0.0,91,0.00,,,0.00,0.0,meteohub,2013-07-26 04:01:00,
2013-07-26 00:02:00,60.4,58.1,30.10,NNE,30,0.0,0.0,92,0.00,,,0.00,0.0,meteohub,2013-07-26 04:02:00,
2013-07-26 00:03:00,60.4,58.1,30.10,NNE,30,0.0,0.0,92,0.00,,,0.00,0.0,meteohub,2013-07-26 04:03:00,
2013-07-26 00:05:00,60.3,57.9,30.10,NNE,30,0.0,0.0,92,0.00,,,0.00,0.0,meteohub,2013-07-26 04:05:00,
2013-07-26 00:10:00,60.1,57.4,30.10,NNE,30,0.0,0.0,91,0.00,,,0.00,0.0,meteohub,2013-07-26 04:10:00,
2013-07-26 00:16:00,59.7,57.4,30.10,NNE,30,0.0,0.0,92,0.00,,,0.00,0.0,meteohub,2013-07-26 04:16:00,
2013-07-26 00:21:00,59.5,57.2,30.10,NNE,30,0.0,0.0,92,0.00,,,0.00,0.0,meteohub,2013-07-26 04:21:00,
2013-07-26 00:26:00,59.4,57.0,30.11,NNE,30,0.0,0.0,92,0.00,,,0.00,0.0,meteohub,2013-07-26 04:26:00,
2013-07-26 00:31:00,59.2,57.2,30.11,NNE,30,0.0,0.0,93,0.00,,,0.00,0.0,meteohub,2013-07-26 04:31:00,
2013-07-26 00:37:00,59.0,57.0,30.10,NNE,30,0.0,0.0,93,0.00,,,0.00,0.0,meteohub,2013-07-26 04:37:00,
2013-07-26 00:42:00,58.8,56.8,30.11,NNE,30,0.0,0.0,93,0.00,,,0.00,0.0,meteohub,2013-07-26 04:42:00,
2013-07-26 00:47:00,58.8,57.0,30.11,NNE,30,0.0,0.0,94,0.00,,,0.00,0.0,meteohub,2013-07-26 04:47:00,
2013-07-26 00:52:00,58.6,56.7,30.11,NNE,30,0.0,0.0,93,0.00,,,0.00,0.0,meteohub,2013-07-26 04:52:00,
2013-07-26 00:57:00,58.5,56.7,30.10,NNE,30,0.0,0.0,94,0.00,,,0.00,0.0,meteohub,2013-07-26 04:57:00,
2013-07-26 01:02:00,58.5,56.7,30.10,NNE,30,0.0,0.0,94,0.00,,,0.00,0.0,meteohub,2013-07-26 05:02:00,
2013-07-26 01:07:00,58.3,56.5,30.10,NNE,30,0.0,0.0,94,0.00,,,0.00,0.0,meteohub,2013-07-26 05:07:00,
2013-07-26 01:12:00,58.1,56.3,30.10,NNE,30,0.0,0.0,94,0.00,,,0.00,0.0,meteohub,2013-07-26 05:12:00,
2013-07-26 01:17:00,57.9,56.1,30.10,NNE,30,0.0,0.0,94,0.00,,,0.00,0.0,meteohub,2013-07-26 05:17:00,
2013-07-26 01:22:00,57.9,56.1,30.10,NNE,30,0.0,0.0,94,0.00,,,0.00,0.0,meteohub,2013-07-26 05:22:00,
2013-07-26 01:27:00,57.7,55.9,30.10,NNE,30,0.0,0.0,94,0.00,,,0.00,0.0,meteohub,2013-07-26 05:27:00,
2013-07-26 01:32:00,57.6,56.1,30.11,NNE,30,0.0,0.0,95,0.00,,,0.00,0.0,meteohub,2013-07-26 05:32:00,
2013-07-26 01:37:00,57.6,56.1,30.11,NNE,30,0.0,0.0,95,0.00,,,0.00,0.0,meteohub,2013-07-26 05:37:00,
2013-07-26 01:42:00,57.4,55.9,30.11,NNE,30,0.0,0.0,95,0.00,,,0.00,0.0,meteohub,2013-07-26 05:42:00,
2013-07-26 01:48:00,57.4,55.9,30.11,NNE,30,0.0,0.0,95,0.00,,,0.00,0.0,meteohub,2013-07-26 05:48:00,
2013-07-26 01:53:00,57.2,55.8,30.11,NNE,30,0.0,0.0,95,0.00,,,0.00,0.0,meteohub,2013-07-26 05:53:00,
2013-07-26 01:58:00,57.0,55.6,30.11,NNE,30,0.0,0.0,95,0.00,,,0.00,0.0,meteohub,2013-07-26 05:58:00,
2013-07-26 02:03:00,56.8,55.4,30.10,NNE,30,0.0,0.0,95,0.00,,,0.00,0.0,meteohub,2013-07-26 06:03:00,
2013-07-26 02:08:00,56.8,55.8,30.10,NNE,30,0.0,0.0,96,0.00,,,0.00,0.0,meteohub,2013-07-26 06:08:00,
2013-07-26 02:13:00,56.8,55.8,30.10,NNE,30,0.0,0.0,96,0.00,,,0.00,0.0,meteohub,2013-07-26 06:13:00,
2013-07-26 02:18:00,56.7,55.2,30.10,NNE,30,0.0,0.0,95,0.00,,,0.00,0.0,meteohub,2013-07-26 06:18:00,
2013-07-26 02:23:00,56.7,55.2,30.11,NNE,30,0.0,0.0,95,0.00,,,0.00,0.0,meteohub,2013-07-26 06:23:00,
2013-07-26 02:29:00,56.5,55.0,30.10,NNE,30,0.0,0.0,95,0.00,,,0.00,0.0,meteohub,2013-07-26 06:29:00,
2013-07-26 02:34:00,56.5,55.4,30.11,NNE,30,0.0,0.0,96,0.00,,,0.00,0.0,meteohub,2013-07-26 06:34:00,
2013-07-26 02:39:00,56.5,55.4,30.10,NNE,30,0.0,0.0,96,0.00,,,0.00,0.0,meteohub,2013-07-26 06:39:00,
2013-07-26 02:44:00,56.3,55.2,30.10,NNE,30,0.0,0.0,96,0.00,,,0.00,0.0,meteohub,2013-07-26 06:44:00,
2013-07-26 02:50:00,56.1,55.0,30.11,NNE,30,0.0,0.0,96,0.00,,,0.00,0.0,meteohub,2013-07-26 06:50:00,
2013-07-26 02:55:00,56.1,55.0,30.10,NNE,30,0.0,0.0,96,0.00,,,0.00,0.0,meteohub,2013-07-26 06:55:00,
2013-07-26 03:00:00,55.9,54.9,30.10,NNE,30,0.0,0.0,96,0.00,,,0.00,0.0,meteohub,2013-07-26 07:00:00,
2013-07-26 03:03:00,55.9,54.9,30.10,NNE,30,0.0,0.0,96,0.00,,,0.00,0.0,meteohub,2013-07-26 07:03:00,
2013-07-26 03:08:00,55.8,54.7,30.10,NNE,30,0.0,0.0,96,0.00,,,0.00,0.0,meteohub,2013-07-26 07:08:00,
2013-07-26 03:13:00,55.8,54.7,30.10,NNE,30,0.0,0.0,96,0.00,,,0.00,0.0,meteohub,2013-07-26 07:13:00,
2013-07-26 03:19:00,55.8,54.7,30.09,NNE,30,0.0,0.0,96,0.00,,,0.00,0.0,meteohub,2013-07-26 07:19:00,
2013-07-26 03:24:00,55.6,54.5,30.09,NNE,30,0.0,0.0,96,0.00,,,0.00,0.0,meteohub,2013-07-26 07:24:00,
2013-07-26 03:29:00,55.6,54.5,30.09,NNE,30,0.0,0.0,96,0.00,,,0.00,0.0,meteohub,2013-07-26 07:29:00,
2013-07-26 03:34:00,55.4,54.3,30.09,NNE,30,0.0,0.0,96,0.00,,,0.00,0.0,meteohub,2013-07-26 07:34:00,
2013-07-26 03:39:00,55.4,54.5,30.09,NNE,30,0.0,0.0,97,0.00,,,0.00,0.0,meteohub,2013-07-26 07:39:00,
2013-07-26 03:45:00,55.4,54.5,30.09,NNE,30,0.0,0.0,97,0.00,,,0.00,0.0,meteohub,2013-07-26 07:45:00,
2013-07-26 03:50:00,55.6,54.7,30.08,NNE,30,0.0,0.0,97,0.00,,,0.00,0.0,meteohub,2013-07-26 07:50:00,
2013-07-26 03:55:00,55.4,54.5,30.08,NNE,30,0.0,0.0,97,0.00,,,0.00,0.0,meteohub,2013-07-26 07:55:00,
2013-07-26 04:00:00,55.4,54.5,30.08,NNE,30,0.0,0.0,97,0.00,,,0.00,0.0,meteohub,2013-07-26 08:00:00,
2013-07-26 04:05:00,55.2,54.3,30.08,NNE,30,0.0,0.0,97,0.00,,,0.00,0.0,meteohub,2013-07-26 08:05:00,
2013-07-26 04:10:00,55.2,54.3,30.08,NNE,30,0.0,0.0,97,0.00,,,0.00,0.0,meteohub,2013-07-26 08:10:00,
2013-07-26 04:15:00,55.2,54.3,30.07,NNE,30,0.0,0.0,97,0.00,,,0.00,0.0,meteohub,2013-07-26 08:15:00,
2013-07-26 04:21:00,55.2,54.3,30.07,NNE,30,0.0,1.0,97,0.00,,,0.00,0.0,meteohub,2013-07-26 08:21:00,
2013-07-26 04:26:00,55.0,54.1,30.07,NNE,30,0.0,1.0,97,0.00,,,0.00,0.0,meteohub,2013-07-26 08:26:00,
2013-07-26 04:31:00,55.0,54.1,30.07,NNE,30,0.0,1.0,97,0.00,,,0.00,0.0,meteohub,2013-07-26 08:31:00,
2013-07-26 04:36:00,55.0,54.1,30.07,NNE,30,0.0,0.0,97,0.00,,,0.00,0.0,meteohub,2013-07-26 08:36:00,
2013-07-26 04:42:00,54.9,54.0,30.08,NNE,30,0.0,0.0,97,0.00,,,0.00,0.0,meteohub,2013-07-26 08:42:00,
2013-07-26 04:47:00,54.7,53.8,30.08,NNE,30,0.0,0.0,97,0.00,,,0.00,0.0,meteohub,2013-07-26 08:47:00,
2013-07-26 04:52:00,54.7,53.8,30.08,NNE,30,0.0,0.0,97,0.00,,,0.00,0.0,meteohub,2013-07-26 08:52:00,
2013-07-26 04:57:00,54.7,53.8,30.09,NNE,30,0.0,0.0,97,0.00,,,0.00,0.0,meteohub,2013-07-26 08:57:00,
2013-07-26 05:02:00,54.7,53.8,30.09,NNE,30,0.0,0.0,97,0.00,,,0.00,0.0,meteohub,2013-07-26 09:02:00,
2013-07-26 05:07:00,54.5,53.6,30.09,NNE,30,0.0,0.0,97,0.00,,,0.00,0.0,meteohub,2013-07-26 09:07:00,
2013-07-26 05:12:00,54.3,53.4,30.09,NNE,30,0.0,0.0,97,0.00,,,0.00,0.0,meteohub,2013-07-26 09:12:00,
2013-07-26 05:17:00,54.3,53.4,30.10,NNE,30,0.0,0.0,97,0.00,,,0.00,0.0,meteohub,2013-07-26 09:17:00,
2013-07-26 05:22:00,54.3,53.4,30.10,NNE,30,0.0,0.0,97,0.00,,,0.00,0.0,meteohub,2013-07-26 09:22:00,
2013-07-26 05:27:00,54.1,53.2,30.10,NNE,30,0.0,0.0,97,0.00,,,0.00,0.0,meteohub,2013-07-26 09:27:00,
2013-07-26 05:32:00,54.1,53.2,30.10,NNE,30,0.0,0.0,97,0.00,,,0.00,0.0,meteohub,2013-07-26 09:32:00,
2013-07-26 05:38:00,54.1,53.2,30.11,NNE,30,0.0,0.0,97,0.00,,,0.00,0.0,meteohub,2013-07-26 09:38:00,
2013-07-26 05:43:00,54.0,53.1,30.11,NNE,30,0.0,0.0,97,0.00,,,0.00,0.0,meteohub,2013-07-26 09:43:00,
2013-07-26 05:48:00,54.0,53.1,30.10,NNE,30,0.0,0.0,97,0.00,,,0.00,0.0,meteohub,2013-07-26 09:48:00,
2013-07-26 05:53:00,54.0,53.1,30.11,NNE,30,0.0,0.0,97,0.00,,,0.00,0.0,meteohub,2013-07-26 09:53:00,
2013-07-26 05:58:00,53.8,52.9,30.11,NNE,30,0.0,0.0,97,0.00,,,0.00,0.0,meteohub,2013-07-26 09:58:00,
2013-07-26 06:03:00,53.8,52.9,30.11,NNE,30,0.0,0.0,97,0.00,,,0.00,0.0,meteohub,2013-07-26 10:03:00,
2013-07-26 06:08:00,53.8,52.9,30.11,NNE,30,0.0,0.0,97,0.00,,,0.00,0.0,meteohub,2013-07-26 10:08:00,
2013-07-26 06:14:00,53.8,52.9,30.11,NNE,30,0.0,0.0,97,0.00,,,0.00,0.0,meteohub,2013-07-26 10:14:00,
2013-07-26 06:19:00,53.8,52.9,30.11,NNE,30,0.0,0.0,97,0.00,,,0.00,0.0,meteohub,2013-07-26 10:19:00,
2013-07-26 06:24:00,53.6,53.1,30.11,NNE,30,0.0,0.0,98,0.00,,,0.00,0.0,meteohub,2013-07-26 10:24:00,
2013-07-26 06:29:00,53.8,53.2,30.11,NNE,30,0.0,0.0,98,0.00,,,0.00,0.0,meteohub,2013-07-26 10:29:00,
2013-07-26 06:34:00,53.8,53.2,30.11,NNE,30,0.0,0.0,98,0.00,,,0.00,0.0,meteohub,2013-07-26 10:34:00,
2013-07-26 06:40:00,53.8,53.2,30.11,NNE,30,0.0,0.0,98,0.00,,,0.00,5.0,meteohub,2013-07-26 10:40:00,
2013-07-26 06:45:00,53.6,53.1,30.11,NNE,30,0.0,0.0,98,0.00,,,0.00,9.0,meteohub,2013-07-26 10:45:00,
2013-07-26 06:50:00,53.4,52.9,30.11,NNE,30,0.0,0.0,98,0.00,,,0.00,12.0,meteohub,2013-07-26 10:50:00,
2013-07-26 06:55:00,53.4,52.9,30.10,NNE,30,0.0,0.0,98,0.00,,,0.00,16.0,meteohub,2013-07-26 10:55:00,
2013-07-26 07:00:00,53.4,52.9,30.10,NNE,30,0.0,0.0,98,0.00,,,0.00,21.0,meteohub,2013-07-26 11:00:00,
2013-07-26 07:05:00,53.4,52.9,30.10,NNE,30,0.0,0.0,98,0.00,,,0.00,21.0,meteohub,2013-07-26 11:05:00,
2013-07-26 07:11:00,53.4,52.9,30.10,NNE,30,0.0,0.0,98,0.00,,,0.00,23.0,meteohub,2013-07-26 11:11:00,
2013-07-26 07:16:00,53.4,52.9,30.11,NNE,30,0.0,0.0,98,0.00,,,0.00,25.0,meteohub,2013-07-26 11:16:00,
2013-07-26 07:21:00,53.8,53.2,30.11,NNE,30,0.0,0.0,98,0.00,,,0.00,26.0,meteohub,2013-07-26 11:21:00,
2013-07-26 07:26:00,54.1,53.6,30.11,NNE,30,0.0,0.0,98,0.00,,,0.00,32.0,meteohub,2013-07-26 11:26:00,
2013-07-26 07:32:00,54.3,53.8,30.11,NNE,30,0.0,0.0,98,0.00,,,0.00,33.0,meteohub,2013-07-26 11:32:00,
2013-07-26 07:37:00,54.7,54.3,30.11,NNE,30,0.0,0.0,99,0.00,,,0.00,35.0,meteohub,2013-07-26 11:37:00,
2013-07-26 07:42:00,55.0,54.7,30.11,NNE,30,0.0,0.0,99,0.00,,,0.00,40.0,meteohub,2013-07-26 11:42:00,
2013-07-26 07:47:00,55.6,55.2,30.11,NNE,30,0.0,0.0,99,0.00,,,0.00,39.0,meteohub,2013-07-26 11:47:00,
2013-07-26 07:52:00,55.9,55.6,30.11,NNE,30,0.0,0.0,99,0.00,,,0.00,40.0,meteohub,2013-07-26 11:52:00,
2013-07-26 07:57:00,56.5,56.1,30.11,ESE,106,0.0,0.0,99,0.00,,,0.00,51.0,meteohub,2013-07-26 11:57:00,
2013-07-26 08:02:00,57.0,56.7,30.11,ESE,106,0.0,0.0,99,0.00,,,0.00,49.0,meteohub,2013-07-26 12:02:00,
2013-07-26 08:03:00,57.2,56.8,30.11,ESE,106,0.0,0.0,99,0.00,,,0.00,47.0,meteohub,2013-07-26 12:03:00,
2013-07-26 08:08:00,57.7,57.4,30.11,ESE,106,0.0,0.0,99,0.00,,,0.00,47.0,meteohub,2013-07-26 12:08:00,
2013-07-26 08:13:00,58.3,57.9,30.11,ESE,106,0.0,0.0,99,0.00,,,0.00,70.0,meteohub,2013-07-26 12:13:00,
2013-07-26 08:19:00,58.8,58.5,30.11,ESE,106,0.0,0.0,99,0.00,,,0.00,137.0,meteohub,2013-07-26 12:19:00,
2013-07-26 08:24:00,59.5,59.2,30.11,ESE,106,0.0,0.0,99,0.00,,,0.00,239.0,meteohub,2013-07-26 12:24:00,
2013-07-26 08:29:00,60.4,60.1,30.11,ESE,104,1.0,0.0,99,0.00,,,0.00,264.0,meteohub,2013-07-26 12:29:00,
2013-07-26 08:34:00,61.2,60.8,30.11,SE,124,0.0,1.0,99,0.00,,,0.00,255.0,meteohub,2013-07-26 12:34:00,
2013-07-26 08:39:00,61.9,61.5,30.10,ENE,69,2.0,3.0,99,0.00,,,0.00,260.0,meteohub,2013-07-26 12:39:00,
2013-07-26 08:45:00,62.4,61.5,30.10,SE,140,2.0,3.0,97,0.00,,,0.00,239.0,meteohub,2013-07-26 12:45:00,
2013-07-26 08:50:00,63.5,61.7,30.10,SE,142,2.0,3.0,94,0.00,,,0.00,253.0,meteohub,2013-07-26 12:50:00,
2013-07-26 08:55:00,64.6,61.5,30.10,SE,139,0.0,4.0,90,0.00,,,0.00,334.0,meteohub,2013-07-26 12:55:00,
2013-07-26 09:00:00,65.5,61.9,30.09,SE,139,1.0,4.0,88,0.00,,,0.00,364.0,meteohub,2013-07-26 13:00:00,
2013-07-26 09:06:00,66.4,62.1,30.09,SE,127,2.0,5.0,86,0.00,,,0.00,415.0,meteohub,2013-07-26 13:06:00,
2013-07-26 09:11:00,67.6,62.2,30.09,SSE,153,2.0,6.0,83,0.00,,,0.00,534.0,meteohub,2013-07-26 13:11:00,
2013-07-26 09:16:00,68.7,63.3,30.09,SSE,148,0.0,6.0,83,0.00,,,0.00,401.0,meteohub,2013-07-26 13:16:00,
2013-07-26 09:21:00,69.8,63.3,30.09,ESE,119,3.0,6.0,80,0.00,,,0.00,287.0,meteohub,2013-07-26 13:21:00,
2013-07-26 09:27:00,70.5,64.0,30.09,SE,129,4.0,4.0,80,0.00,,,0.00,367.0,meteohub,2013-07-26 13:27:00,
2013-07-26 09:32:00,71.2,64.4,30.09,SE,132,1.0,4.0,79,0.00,,,0.00,396.0,meteohub,2013-07-26 13:32:00,
2013-07-26 09:37:00,71.8,64.2,30.09,South,173,1.0,4.0,77,0.00,,,0.00,536.0,meteohub,2013-07-26 13:37:00,
2013-07-26 09:42:00,72.1,63.9,30.09,SSW,210,1.0,4.0,75,0.00,,,0.00,359.0,meteohub,2013-07-26 13:42:00,
2013-07-26 09:48:00,72.7,64.8,30.09,SSE,159,0.0,4.0,76,0.00,,,0.00,459.0,meteohub,2013-07-26 13:48:00,
2013-07-26 09:53:00,73.2,64.4,30.09,SSW,205,1.0,4.0,74,0.00,,,0.00,592.0,meteohub,2013-07-26 13:53:00,
2013-07-26 09:59:00,73.9,64.8,30.09,SE,138,1.0,5.0,73,0.00,,,0.00,323.0,meteohub,2013-07-26 13:59:00,
2013-07-26 10:04:00,74.1,64.0,30.09,SSW,194,1.0,5.0,71,0.00,,,0.00,545.0,meteohub,2013-07-26 14:04:00,
2013-07-26 10:09:00,74.1,64.6,30.09,SSE,162,3.0,5.0,72,0.00,,,0.00,571.0,meteohub,2013-07-26 14:09:00,
2013-07-26 10:14:00,74.5,64.0,30.09,SSE,153,2.0,5.0,70,0.00,,,0.00,596.0,meteohub,2013-07-26 14:14:00,
2013-07-26 10:19:00,74.8,64.8,30.09,SSE,167,2.0,5.0,71,0.00,,,0.00,613.0,meteohub,2013-07-26 14:19:00,
2013-07-26 10:24:00,75.2,63.5,30.09,SE,131,3.0,6.0,67,0.00,,,0.00,589.0,meteohub,2013-07-26 14:24:00,
2013-07-26 10:29:00,75.6,64.2,30.09,SE,142,3.0,6.0,68,0.00,,,0.00,610.0,meteohub,2013-07-26 14:29:00,
2013-07-26 10:34:00,75.9,63.3,30.08,SSE,151,2.0,6.0,65,0.00,,,0.00,643.0,meteohub,2013-07-26 14:34:00,
2013-07-26 10:40:00,76.5,64.8,30.08,ESE,114,4.0,6.0,67,0.00,,,0.00,663.0,meteohub,2013-07-26 14:40:00,
2013-07-26 10:45:00,76.8,65.5,30.08,ENE,62,5.0,6.0,68,0.00,,,0.00,719.0,meteohub,2013-07-26 14:45:00,
2013-07-26 10:50:00,77.2,63.1,30.08,ESE,114,4.0,8.0,62,0.00,,,0.00,714.0,meteohub,2013-07-26 14:50:00,
2013-07-26 10:55:00,77.4,64.8,30.08,South,186,2.0,6.0,65,0.00,,,0.00,712.0,meteohub,2013-07-26 14:55:00,
2013-07-26 11:00:00,77.2,63.7,30.08,WSW,243,2.0,7.0,63,0.00,,,0.00,731.0,meteohub,2013-07-26 15:00:00,
2013-07-26 11:06:00,77.2,62.6,30.08,South,172,1.0,8.0,61,0.00,,,0.00,745.0,meteohub,2013-07-26 15:06:00,
2013-07-26 11:11:00,77.2,62.2,30.08,WSW,241,2.0,8.0,60,0.00,,,0.00,758.0,meteohub,2013-07-26 15:11:00,
2013-07-26 11:16:00,77.2,63.1,30.08,SSE,167,0.0,8.0,62,0.00,,,0.00,772.0,meteohub,2013-07-26 15:16:00,
2013-07-26 11:21:00,77.5,63.0,30.07,SSE,166,2.0,6.0,61,0.00,,,0.00,838.0,meteohub,2013-07-26 15:21:00,
2013-07-26 11:26:00,77.7,61.3,30.07,SW,215,2.0,6.0,57,0.00,,,0.00,332.0,meteohub,2013-07-26 15:26:00,
2013-07-26 11:31:00,77.5,63.5,30.07,West,261,1.0,6.0,62,0.00,,,0.00,847.0,meteohub,2013-07-26 15:31:00,
2013-07-26 11:37:00,77.9,62.4,30.07,WSW,255,1.0,6.0,59,0.00,,,0.00,879.0,meteohub,2013-07-26 15:37:00,
2013-07-26 11:42:00,78.4,63.0,30.07,SE,133,5.0,5.0,59,0.00,,,0.00,902.0,meteohub,2013-07-26 15:42:00,
2013-07-26 11:47:00,78.1,61.5,30.07,South,169,1.0,7.0,57,0.00,,,0.00,225.0,meteohub,2013-07-26 15:47:00,
2013-07-26 11:52:00,77.5,62.6,30.07,SE,146,3.0,7.0,60,0.00,,,0.00,911.0,meteohub,2013-07-26 15:52:00,
2013-07-26 11:58:00,78.1,63.1,30.07,ENE,61,2.0,7.0,60,0.00,,,0.00,912.0,meteohub,2013-07-26 15:58:00,
2013-07-26 12:03:00,78.6,63.1,30.07,East,89,0.0,7.0,59,0.00,,,0.00,916.0,meteohub,2013-07-26 16:03:00,
2013-07-26 12:08:00,79.0,65.8,30.06,East,82,2.0,7.0,64,0.00,,,0.00,947.0,meteohub,2013-07-26 16:08:00,
2013-07-26 12:13:00,79.3,63.7,30.06,SE,125,3.0,8.0,59,0.00,,,0.00,1009.0,meteohub,2013-07-26 16:13:00,
2013-07-26 12:19:00,79.5,64.4,30.06,South,171,5.0,8.0,60,0.00,,,0.00,279.0,meteohub,2013-07-26 16:19:00,
2013-07-26 12:24:00,78.1,63.5,30.06,WSW,247,3.0,8.0,61,0.00,,,0.00,1039.0,meteohub,2013-07-26 16:24:00,
2013-07-26 12:29:00,78.3,63.3,30.06,NNE,30,2.0,7.0,60,0.00,,,0.00,1039.0,meteohub,2013-07-26 16:29:00,
2013-07-26 12:34:00,79.5,65.8,30.06,NW,306,1.0,7.0,63,0.00,,,0.00,1111.0,meteohub,2013-07-26 16:34:00,
2013-07-26 12:39:00,79.5,63.0,30.06,NE,42,2.0,7.0,57,0.00,,,0.00,1034.0,meteohub,2013-07-26 16:39:00,
2013-07-26 12:44:00,78.4,61.9,30.06,South,171,2.0,7.0,57,0.00,,,0.00,513.0,meteohub,2013-07-26 16:44:00,
2013-07-26 12:49:00,79.0,62.4,30.06,SSE,152,1.0,6.0,57,0.00,,,0.00,1197.0,meteohub,2013-07-26 16:49:00,
2013-07-26 12:55:00,78.4,63.3,30.06,SSE,153,0.0,8.0,60,0.00,,,0.00,376.0,meteohub,2013-07-26 16:55:00,
2013-07-26 13:00:00,77.7,62.2,30.06,SSE,161,3.0,8.0,59,0.00,,,0.00,415.0,meteohub,2013-07-26 17:00:00,
2013-07-26 13:05:00,77.7,62.8,30.06,South,174,3.0,8.0,60,0.00,,,0.00,374.0,meteohub,2013-07-26 17:05:00,
2013-07-26 13:10:00,77.5,62.6,30.06,South,188,0.0,7.0,60,0.00,,,0.00,394.0,meteohub,2013-07-26 17:10:00,
2013-07-26 13:15:00,77.2,62.6,30.06,SSE,166,3.0,5.0,61,0.00,,,0.00,394.0,meteohub,2013-07-26 17:15:00,
2013-07-26 13:20:00,78.1,63.5,30.06,SSE,163,2.0,7.0,61,0.00,,,0.00,1106.0,meteohub,2013-07-26 17:20:00,
2013-07-26 13:26:00,78.3,61.7,30.06,WSW,239,2.0,7.0,57,0.00,,,0.00,441.0,meteohub,2013-07-26 17:26:00,
2013-07-26 13:31:00,77.5,62.6,30.06,South,173,1.0,7.0,60,0.00,,,0.00,339.0,meteohub,2013-07-26 17:31:00,
2013-07-26 13:36:00,77.5,63.5,30.05,North,11,3.0,7.0,62,0.00,,,0.00,420.0,meteohub,2013-07-26 17:36:00,
2013-07-26 13:41:00,77.9,65.7,30.05,SW,233,5.0,7.0,66,0.00,,,0.00,399.0,meteohub,2013-07-26 17:41:00,
2013-07-26 13:46:00,78.6,66.4,30.05,West,268,1.0,7.0,66,0.00,,,0.00,1137.0,meteohub,2013-07-26 17:46:00,
2013-07-26 13:51:00,79.9,66.6,30.05,SE,132,2.0,7.0,64,0.00,,,0.00,1137.0,meteohub,2013-07-26 17:51:00,
2013-07-26 13:57:00,79.3,63.3,30.04,SW,215,1.0,7.0,58,0.00,,,0.00,181.0,meteohub,2013-07-26 17:57:00,
2013-07-26 14:02:00,78.4,63.9,30.05,SSW,194,1.0,6.0,61,0.00,,,0.00,343.0,meteohub,2013-07-26 18:02:00,
2013-07-26 14:07:00,79.0,63.9,30.04,NNW,327,1.0,6.0,60,0.00,,,0.00,469.0,meteohub,2013-07-26 18:07:00,
2013-07-26 14:12:00,78.6,61.5,30.04,SSW,205,0.0,4.0,56,0.00,,,0.00,327.0,meteohub,2013-07-26 18:12:00,
2013-07-26 14:17:00,78.8,64.2,30.04,SW,229,1.0,4.0,61,0.00,,,0.00,380.0,meteohub,2013-07-26 18:17:00,
2013-07-26 14:23:00,78.6,63.5,30.03,NNW,335,1.0,4.0,60,0.00,,,0.00,394.0,meteohub,2013-07-26 18:23:00,
2013-07-26 14:28:00,79.0,64.4,30.03,ESE,123,1.0,3.0,61,0.00,,,0.00,403.0,meteohub,2013-07-26 18:28:00,
2013-07-26 14:33:00,80.1,65.5,30.03,SE,143,3.0,4.0,61,0.00,,,0.00,1071.0,meteohub,2013-07-26 18:33:00,
2013-07-26 14:38:00,81.0,65.3,30.02,SSE,159,3.0,8.0,59,0.00,,,0.00,1083.0,meteohub,2013-07-26 18:38:00,
2013-07-26 14:43:00,81.3,63.1,30.02,SSE,161,1.0,8.0,54,0.00,,,0.00,1048.0,meteohub,2013-07-26 18:43:00,
2013-07-26 14:48:00,81.1,63.0,30.02,SSW,205,3.0,8.0,54,0.00,,,0.00,995.0,meteohub,2013-07-26 18:48:00,
2013-07-26 14:53:00,80.4,64.8,30.02,SW,230,2.0,6.0,59,0.00,,,0.00,789.0,meteohub,2013-07-26 18:53:00,
2013-07-26 14:59:00,81.0,67.1,30.02,SSW,205,1.0,6.0,63,0.00,,,0.00,953.0,meteohub,2013-07-26 18:59:00,
2013-07-26 15:04:00,80.6,65.5,30.02,SW,221,4.0,6.0,60,0.00,,,0.00,749.0,meteohub,2013-07-26 19:04:00,
2013-07-26 15:09:00,80.6,64.4,30.02,SW,219,4.0,5.0,58,0.00,,,0.00,766.0,meteohub,2013-07-26 19:09:00,
2013-07-26 15:14:00,80.6,65.8,30.02,South,188,4.0,7.0,61,0.00,,,0.00,582.0,meteohub,2013-07-26 19:14:00,
2013-07-26 15:19:00,80.8,65.7,30.02,WSW,256,1.0,9.0,60,0.00,,,0.00,969.0,meteohub,2013-07-26 19:19:00,
2013-07-26 15:24:00,81.0,63.9,30.01,West,273,0.0,9.0,56,0.00,,,0.00,392.0,meteohub,2013-07-26 19:24:00,
2013-07-26 15:30:00,80.1,63.9,30.02,SW,233,2.0,7.0,58,0.00,,,0.00,434.0,meteohub,2013-07-26 19:30:00,
2013-07-26 15:35:00,79.7,64.0,30.02,WNW,300,2.0,8.0,59,0.00,,,0.00,436.0,meteohub,2013-07-26 19:35:00,
2013-07-26 15:40:00,79.9,64.8,30.01,SSW,210,2.0,8.0,60,0.00,,,0.00,380.0,meteohub,2013-07-26 19:40:00,
2013-07-26 15:45:00,80.2,65.1,30.01,West,262,7.0,8.0,60,0.00,,,0.00,775.0,meteohub,2013-07-26 19:45:00,
2013-07-26 15:50:00,80.1,65.5,30.01,SW,229,4.0,11.0,61,0.00,,,0.00,526.0,meteohub,2013-07-26 19:50:00,
2013-07-26 15:56:00,80.1,63.9,30.01,West,262,2.0,11.0,58,0.00,,,0.00,436.0,meteohub,2013-07-26 19:56:00,
2013-07-26 16:01:00,80.4,66.2,30.01,WNW,294,3.0,10.0,62,0.00,,,0.00,802.0,meteohub,2013-07-26 20:01:00,
2013-07-26 16:06:00,81.3,67.5,30.01,SW,234,5.0,7.0,63,0.00,,,0.00,788.0,meteohub,2013-07-26 20:06:00,
2013-07-26 16:11:00,81.3,65.1,30.01,South,173,4.0,6.0,58,0.00,,,0.00,784.0,meteohub,2013-07-26 20:11:00,
2013-07-26 16:17:00,81.0,63.9,30.01,WNW,284,4.0,8.0,56,0.00,,,0.00,396.0,meteohub,2013-07-26 20:17:00,
2013-07-26 16:22:00,80.1,64.9,30.01,West,266,5.0,8.0,60,0.00,,,0.00,854.0,meteohub,2013-07-26 20:22:00,
2013-07-26 16:27:00,81.7,64.4,30.01,NW,323,3.0,9.0,56,0.00,,,0.00,798.0,meteohub,2013-07-26 20:27:00,
2013-07-26 16:32:00,81.9,65.1,30.01,West,260,3.0,9.0,57,0.00,,,0.00,643.0,meteohub,2013-07-26 20:32:00,
2013-07-26 16:37:00,81.0,62.8,30.01,SW,229,4.0,9.0,54,0.00,,,0.00,524.0,meteohub,2013-07-26 20:37:00,
2013-07-26 16:43:00,80.2,64.6,30.01,South,183,1.0,10.0,59,0.00,,,0.00,747.0,meteohub,2013-07-26 20:43:00,
2013-07-26 16:48:00,81.3,64.0,30.01,WSW,240,4.0,10.0,56,0.00,,,0.00,717.0,meteohub,2013-07-26 20:48:00,
2013-07-26 16:53:00,81.7,63.5,30.00,NW,307,3.0,10.0,54,0.00,,,0.00,696.0,meteohub,2013-07-26 20:53:00,
2013-07-26 16:58:00,81.7,64.4,30.01,West,266,5.0,8.0,56,0.00,,,0.00,715.0,meteohub,2013-07-26 20:58:00,
2013-07-26 17:03:00,81.5,64.2,30.00,West,280,4.0,8.0,56,0.00,,,0.00,417.0,meteohub,2013-07-26 21:03:00,
2013-07-26 17:09:00,80.8,63.7,30.01,West,259,5.0,7.0,56,0.00,,,0.00,526.0,meteohub,2013-07-26 21:09:00,
2013-07-26 17:14:00,80.6,64.0,30.01,WNW,287,2.0,7.0,57,0.00,,,0.00,239.0,meteohub,2013-07-26 21:14:00,
2013-07-26 17:19:00,80.1,63.5,30.01,SSW,205,0.0,8.0,57,0.00,,,0.00,501.0,meteohub,2013-07-26 21:19:00,
2013-07-26 17:24:00,80.1,63.9,30.00,SSE,163,2.0,8.0,58,0.00,,,0.00,580.0,meteohub,2013-07-26 21:24:00,
2013-07-26 17:29:00,80.4,63.3,30.00,South,172,0.0,8.0,56,0.00,,,0.00,508.0,meteohub,2013-07-26 21:29:00,
2013-07-26 17:35:00,81.3,65.1,30.00,SSW,200,1.0,6.0,58,0.00,,,0.00,573.0,meteohub,2013-07-26 21:35:00,
2013-07-26 17:40:00,81.7,63.5,30.00,SSW,200,2.0,4.0,54,0.00,,,0.00,540.0,meteohub,2013-07-26 21:40:00,
2013-07-26 17:45:00,81.5,65.3,30.00,SSE,165,0.0,6.0,58,0.00,,,0.00,376.0,meteohub,2013-07-26 21:45:00,
2013-07-26 17:50:00,81.0,65.3,30.00,South,171,1.0,6.0,59,0.00,,,0.00,327.0,meteohub,2013-07-26 21:50:00,
2013-07-26 17:55:00,80.4,63.9,30.00,SW,229,0.0,6.0,57,0.00,,,0.00,260.0,meteohub,2013-07-26 21:55:00,
2013-07-26 18:00:00,80.1,63.0,30.00,South,181,2.0,6.0,56,0.00,,,0.00,206.0,meteohub,2013-07-26 22:00:00,
2013-07-26 18:06:00,80.8,64.0,30.00,SSW,197,2.0,6.0,57,0.00,,,0.00,445.0,meteohub,2013-07-26 22:06:00,
2013-07-26 18:11:00,81.1,63.5,29.99,South,183,1.0,5.0,55,0.00,,,0.00,330.0,meteohub,2013-07-26 22:11:00,
2013-07-26 18:16:00,81.0,65.3,29.99,WNW,286,0.0,5.0,59,0.00,,,0.00,257.0,meteohub,2013-07-26 22:16:00,
2013-07-26 18:21:00,80.2,63.7,29.99,WNW,284,1.0,5.0,57,0.00,,,0.00,251.0,meteohub,2013-07-26 22:21:00,
2013-07-26 18:26:00,80.2,63.1,29.99,WNW,292,3.0,6.0,56,0.00,,,0.00,359.0,meteohub,2013-07-26 22:26:00,
2013-07-26 18:31:00,80.4,63.9,29.99,West,265,2.0,9.0,57,0.00,,,0.00,396.0,meteohub,2013-07-26 22:31:00,
2013-07-26 18:37:00,80.4,63.9,29.99,West,278,4.0,9.0,57,0.00,,,0.00,403.0,meteohub,2013-07-26 22:37:00,
2013-07-26 18:42:00,80.8,65.1,29.99,WSW,248,7.0,9.0,59,0.00,,,0.00,359.0,meteohub,2013-07-26 22:42:00,
2013-07-26 18:47:00,80.4,65.3,29.99,SW,234,4.0,9.0,60,0.00,,,0.00,339.0,meteohub,2013-07-26 22:47:00,
2013-07-26 18:52:00,80.6,64.4,29.99,SW,232,0.0,9.0,58,0.00,,,0.00,316.0,meteohub,2013-07-26 22:52:00,
2013-07-26 18:57:00,80.4,64.2,29.99,SSW,201,4.0,9.0,58,0.00,,,0.00,301.0,meteohub,2013-07-26 22:57:00,
2013-07-26 19:02:00,80.4,65.3,29.99,WSW,247,1.0,6.0,60,0.00,,,0.00,285.0,meteohub,2013-07-26 23:02:00,
2013-07-26 19:07:00,80.1,63.5,29.99,West,263,3.0,6.0,57,0.00,,,0.00,63.0,meteohub,2013-07-26 23:07:00,
2013-07-26 19:13:00,79.3,63.3,29.99,West,277,3.0,7.0,58,0.00,,,0.00,200.0,meteohub,2013-07-26 23:13:00,
2013-07-26 19:18:00,79.0,63.5,29.99,NW,308,2.0,7.0,59,0.00,,,0.00,206.0,meteohub,2013-07-26 23:18:00,
2013-07-26 19:23:00,79.2,63.7,29.99,West,277,1.0,7.0,59,0.00,,,0.00,160.0,meteohub,2013-07-26 23:23:00,
2013-07-26 19:28:00,79.2,63.7,29.99,WNW,302,2.0,7.0,59,0.00,,,0.00,186.0,meteohub,2013-07-26 23:28:00,
2013-07-26 19:34:00,79.2,63.1,29.99,West,276,2.0,6.0,58,0.00,,,0.00,76.0,meteohub,2013-07-26 23:34:00,
2013-07-26 19:39:00,79.0,63.9,29.99,West,268,2.0,6.0,60,0.00,,,0.00,100.0,meteohub,2013-07-26 23:39:00,
2013-07-26 19:44:00,78.6,64.0,29.99,West,268,0.0,6.0,61,0.00,,,0.00,70.0,meteohub,2013-07-26 23:44:00,
2013-07-26 19:49:00,78.4,64.4,29.99,West,279,1.0,5.0,62,0.00,,,0.00,62.0,meteohub,2013-07-26 23:49:00,
2013-07-26 19:54:00,78.1,64.4,29.98,West,269,1.0,4.0,63,0.00,,,0.00,47.0,meteohub,2013-07-26 23:54:00,
2013-07-26 20:00:00,77.5,63.9,29.99,NW,308,1.0,3.0,63,0.00,,,0.00,37.0,meteohub,2013-07-27 00:00:00,
2013-07-26 20:05:00,77.2,64.6,29.99,WNW,301,1.0,3.0,65,0.00,,,0.00,28.0,meteohub,2013-07-27 00:05:00,
2013-07-26 20:10:00,76.6,64.9,29.99,WNW,301,0.0,3.0,67,0.00,,,0.00,23.0,meteohub,2013-07-27 00:10:00,
2013-07-26 20:16:00,76.3,65.8,29.99,WNW,301,0.0,3.0,70,0.00,,,0.00,18.0,meteohub,2013-07-27 00:16:00,
2013-07-26 20:21:00,75.6,66.4,29.99,WNW,301,0.0,1.0,73,0.00,,,0.00,14.0,meteohub,2013-07-27 00:21:00,
2013-07-26 20:26:00,74.5,65.7,29.99,WNW,301,0.0,1.0,74,0.00,,,0.00,12.0,meteohub,2013-07-27 00:26:00,
2013-07-26 20:31:00,73.6,65.5,29.99,WNW,301,0.0,1.0,76,0.00,,,0.00,11.0,meteohub,2013-07-27 00:31:00,
2013-07-26 20:37:00,72.7,65.1,29.99,WNW,301,0.0,1.0,77,0.00,,,0.00,7.0,meteohub,2013-07-27 00:37:00,
2013-07-26 20:42:00,72.0,64.8,29.99,WNW,300,0.0,0.0,78,0.00,,,0.00,5.0,meteohub,2013-07-27 00:42:00,
2013-07-26 20:47:00,71.2,64.8,29.99,WNW,301,0.0,0.0,80,0.00,,,0.00,0.0,meteohub,2013-07-27 00:47:00,
2013-07-26 20:52:00,70.9,64.8,29.99,WNW,300,0.0,0.0,81,0.00,,,0.00,0.0,meteohub,2013-07-27 00:52:00,
2013-07-26 20:57:00,70.3,64.6,29.99,WNW,301,0.0,0.0,82,0.00,,,0.00,0.0,meteohub,2013-07-27 00:57:00,
2013-07-26 21:02:00,70.0,64.6,29.99,WNW,301,0.0,0.0,83,0.00,,,0.00,0.0,meteohub,2013-07-27 01:02:00,
2013-07-26 21:08:00,69.3,64.2,29.99,WNW,301,0.0,0.0,84,0.00,,,0.00,0.0,meteohub,2013-07-27 01:08:00,
2013-07-26 21:13:00,68.9,63.9,29.99,WNW,301,0.0,0.0,84,0.00,,,0.00,0.0,meteohub,2013-07-27 01:13:00,
2013-07-26 21:18:00,68.5,64.2,29.99,WNW,301,0.0,0.0,86,0.00,,,0.00,0.0,meteohub,2013-07-27 01:18:00,
2013-07-26 21:23:00,68.4,64.0,30.00,WNW,301,0.0,0.0,86,0.00,,,0.00,0.0,meteohub,2013-07-27 01:23:00,
2013-07-26 21:28:00,68.0,64.0,30.00,WNW,301,0.0,0.0,87,0.00,,,0.00,0.0,meteohub,2013-07-27 01:28:00,
2013-07-26 21:34:00,67.8,63.9,30.00,WNW,300,0.0,0.0,87,0.00,,,0.00,0.0,meteohub,2013-07-27 01:34:00,
2013-07-26 21:39:00,67.5,63.5,30.00,WNW,301,0.0,0.0,87,0.00,,,0.00,0.0,meteohub,2013-07-27 01:39:00,
2013-07-26 21:44:00,67.3,63.7,30.00,WNW,301,0.0,0.0,88,0.00,,,0.00,0.0,meteohub,2013-07-27 01:44:00,
2013-07-26 21:49:00,66.9,63.3,30.00,WNW,300,0.0,0.0,88,0.00,,,0.00,0.0,meteohub,2013-07-27 01:49:00,
2013-07-26 21:54:00,66.7,63.3,30.01,WNW,300,0.0,0.0,89,0.00,,,0.00,0.0,meteohub,2013-07-27 01:54:00,
2013-07-26 22:00:00,66.6,63.1,30.01,WNW,301,0.0,0.0,89,0.00,,,0.00,0.0,meteohub,2013-07-27 02:00:00,
2013-07-26 22:05:00,66.4,63.0,30.01,WNW,300,0.0,0.0,89,0.00,,,0.00,0.0,meteohub,2013-07-27 02:05:00,
2013-07-26 22:10:00,66.2,63.1,30.01,WNW,301,0.0,0.0,90,0.00,,,0.00,0.0,meteohub,2013-07-27 02:10:00,
2013-07-26 22:15:00,66.0,63.0,30.01,WNW,300,0.0,0.0,90,0.00,,,0.00,0.0,meteohub,2013-07-27 02:15:00,
2013-07-26 22:20:00,65.8,63.1,30.01,WNW,300,0.0,0.0,91,0.00,,,0.00,0.0,meteohub,2013-07-27 02:20:00,
2013-07-26 22:25:00,65.8,63.1,30.01,WNW,300,0.0,0.0,91,0.00,,,0.00,0.0,meteohub,2013-07-27 02:25:00,
2013-07-26 22:30:00,65.7,63.0,30.01,WNW,301,0.0,0.0,91,0.00,,,0.00,0.0,meteohub,2013-07-27 02:30:00,
2013-07-26 22:35:00,65.5,62.8,30.01,WNW,301,0.0,0.0,91,0.00,,,0.00,0.0,meteohub,2013-07-27 02:35:00,
2013-07-26 22:40:00,65.5,63.1,30.01,WNW,301,0.0,0.0,92,0.00,,,0.00,0.0,meteohub,2013-07-27 02:40:00,
2013-07-26 22:45:00,65.3,63.0,30.01,WNW,301,0.0,0.0,92,0.00,,,0.00,0.0,meteohub,2013-07-27 02:45:00,
2013-07-26 22:50:00,65.3,63.1,30.01,WNW,301,0.0,0.0,93,0.00,,,0.00,0.0,meteohub,2013-07-27 02:50:00,
2013-07-26 22:56:00,65.3,63.1,30.01,WNW,300,0.0,0.0,93,0.00,,,0.00,0.0,meteohub,2013-07-27 02:56:00,
2013-07-26 23:01:00,65.3,63.1,30.01,WNW,301,0.0,0.0,93,0.00,,,0.00,0.0,meteohub,2013-07-27 03:01:00,
2013-07-26 23:06:00,65.3,63.1,30.01,WNW,301,0.0,0.0,93,0.00,,,0.00,0.0,meteohub,2013-07-27 03:06:00,
2013-07-26 23:11:00,65.3,63.1,30.01,WNW,300,0.0,0.0,93,0.00,,,0.00,0.0,meteohub,2013-07-27 03:11:00,
2013-07-26 23:17:00,65.1,63.0,30.00,WNW,301,0.0,0.0,93,0.00,,,0.00,0.0,meteohub,2013-07-27 03:17:00,
2013-07-26 23:22:00,65.1,63.0,30.01,WNW,301,0.0,0.0,93,0.00,,,0.00,0.0,meteohub,2013-07-27 03:22:00,
2013-07-26 23:27:00,65.1,63.3,30.00,WNW,301,0.0,0.0,94,0.00,,,0.00,0.0,meteohub,2013-07-27 03:27:00,
2013-07-26 23:32:00,65.3,63.5,30.00,WNW,301,0.0,0.0,94,0.00,,,0.00,0.0,meteohub,2013-07-27 03:32:00,
2013-07-26 23:37:00,65.3,63.5,30.00,WNW,301,0.0,0.0,94,0.00,,,0.00,0.0,meteohub,2013-07-27 03:37:00,
2013-07-26 23:42:00,65.5,64.0,30.00,WNW,300,0.0,0.0,95,0.00,,,0.00,0.0,meteohub,2013-07-27 03:42:00,
2013-07-26 23:47:00,65.5,64.0,30.00,WNW,301,0.0,0.0,95,0.00,,,0.00,0.0,meteohub,2013-07-27 03:47:00,
2013-07-26 23:53:00,65.5,64.0,30.00,WNW,300,0.0,0.0,95,0.00,,,0.00,0.0,meteohub,2013-07-27 03:53:00,
2013-07-26 23:58:00,65.7,64.2,30.00,WNW,301,0.0,0.0,95,0.00,,,0.00,0.0,meteohub,2013-07-27 03:58:00,